createdAt,value
2017-08-11T00:01:28.807Z,45.50
2017-08-11T00:03:56.265Z,45.60
2017-08-11T00:06:23.736Z,45.80
2017-08-11T00:08:51.196Z,46.50
2017-08-11T00:11:19.462Z,45.80
2017-08-11T00:13:46.940Z,45.80
2017-08-11T00:16:14.396Z,45.90
2017-08-11T00:18:42.627Z,46.10
2017-08-11T00:21:10.188Z,46.00
2017-08-11T00:23:37.658Z,46.10
2017-08-11T00:26:05.130Z,46.10
2017-08-11T00:28:32.587Z,46.10
2017-08-11T00:31:00.045Z,46.20
2017-08-11T00:33:27.501Z,46.20
2017-08-11T00:35:54.959Z,46.20
2017-08-11T00:38:22.423Z,46.20
2017-08-11T00:40:49.892Z,46.20
2017-08-11T00:43:17.357Z,46.20
2017-08-11T00:45:44.810Z,46.20
2017-08-11T00:48:12.270Z,46.70
2017-08-11T00:50:39.728Z,46.30
2017-08-11T00:53:07.182Z,46.20
2017-08-11T00:55:34.647Z,45.90
2017-08-11T00:58:02.100Z,46.00
2017-08-11T01:00:29.566Z,45.90
2017-08-11T01:02:57.011Z,45.90
2017-08-11T01:05:24.509Z,45.90
2017-08-11T01:07:51.961Z,46.00
2017-08-11T01:10:19.483Z,45.80
2017-08-11T01:12:46.947Z,45.60
2017-08-11T01:15:14.427Z,45.70
2017-08-11T01:17:41.903Z,45.80
2017-08-11T01:20:09.364Z,45.70
2017-08-11T01:22:36.823Z,45.80
2017-08-11T01:25:04.307Z,45.70
2017-08-11T01:27:31.767Z,45.80
2017-08-11T01:29:59.222Z,45.80
2017-08-11T01:32:26.696Z,45.90
2017-08-11T01:34:54.165Z,45.80
2017-08-11T01:37:21.645Z,45.80
2017-08-11T01:39:49.101Z,45.80
2017-08-11T01:42:16.563Z,45.90
2017-08-11T01:44:44.019Z,45.90
2017-08-11T01:47:11.508Z,45.90
2017-08-11T01:49:38.970Z,45.90
2017-08-11T01:52:06.457Z,45.80
2017-08-11T01:54:33.911Z,45.80
2017-08-11T01:57:01.391Z,45.80
2017-08-11T01:59:28.882Z,45.80
2017-08-11T02:01:56.329Z,45.80
2017-08-11T02:04:23.799Z,45.80
2017-08-11T02:06:51.249Z,45.70
2017-08-11T02:09:18.716Z,45.80
2017-08-11T02:11:46.169Z,45.80
2017-08-11T02:14:13.643Z,45.80
2017-08-11T02:16:41.110Z,45.80
2017-08-11T02:19:08.601Z,45.80
2017-08-11T02:21:36.076Z,45.80
2017-08-11T02:24:03.570Z,45.80
2017-08-11T02:26:31.019Z,45.80
2017-08-11T02:28:58.514Z,45.80
2017-08-11T02:31:25.981Z,45.80
2017-08-11T02:33:53.446Z,45.70
2017-08-11T02:36:20.900Z,45.80
2017-08-11T02:38:48.386Z,45.80
2017-08-11T02:41:15.854Z,45.80
2017-08-11T02:43:43.302Z,45.80
2017-08-11T02:46:10.766Z,45.90
2017-08-11T02:48:38.245Z,45.80
2017-08-11T02:51:05.713Z,45.80
2017-08-11T02:53:33.189Z,45.90
2017-08-11T02:56:00.662Z,45.90
2017-08-11T02:58:28.113Z,45.90
2017-08-11T03:00:55.577Z,45.90
2017-08-11T03:03:23.033Z,45.90
2017-08-11T03:05:51.257Z,45.90
2017-08-11T03:10:52.513Z,45.90
2017-08-11T03:13:19.962Z,45.90
2017-08-11T03:15:47.438Z,45.90
2017-08-11T03:18:14.906Z,45.90
2017-08-11T03:20:42.357Z,45.90
2017-08-11T03:23:09.829Z,45.90
2017-08-11T03:25:37.281Z,45.90
2017-08-11T03:28:04.756Z,45.90
2017-08-11T03:30:32.225Z,45.90
2017-08-11T03:32:59.698Z,46.00
2017-08-11T03:35:27.167Z,45.90
2017-08-11T03:37:54.631Z,46.00
2017-08-11T03:40:22.091Z,46.00
2017-08-11T03:42:49.579Z,46.00
2017-08-11T03:45:17.049Z,45.90
2017-08-11T03:47:45.276Z,45.90
2017-08-11T03:50:12.745Z,46.00
2017-08-11T03:52:40.206Z,46.00
2017-08-11T03:55:07.684Z,46.00
2017-08-11T03:57:35.145Z,46.00
2017-08-11T04:00:02.625Z,46.00
2017-08-11T04:02:30.091Z,46.00
2017-08-11T04:04:57.570Z,46.10
2017-08-11T04:07:25.037Z,46.00
2017-08-11T04:09:52.513Z,46.10
2017-08-11T04:12:19.973Z,46.10
2017-08-11T04:14:47.479Z,46.00
2017-08-11T04:17:14.936Z,46.10
2017-08-11T04:19:43.159Z,46.10
2017-08-11T04:22:10.624Z,46.00
2017-08-11T04:24:38.106Z,46.00
2017-08-11T04:27:05.557Z,46.00
2017-08-11T04:29:33.029Z,46.00
2017-08-11T04:32:00.496Z,46.10
2017-08-11T04:34:27.993Z,46.00
2017-08-11T04:36:55.480Z,46.10
2017-08-11T04:39:22.937Z,46.00
2017-08-11T04:41:50.421Z,46.00
2017-08-11T04:44:18.650Z,45.80
2017-08-11T04:46:46.107Z,46.00
2017-08-11T04:49:13.575Z,46.10
2017-08-11T04:51:41.053Z,46.10
2017-08-11T04:54:08.501Z,46.10
2017-08-11T04:56:35.980Z,46.10
2017-08-11T04:59:03.466Z,46.10
2017-08-11T05:01:30.929Z,46.10
2017-08-11T05:03:58.391Z,46.10
2017-08-11T05:06:25.864Z,46.10
2017-08-11T05:08:53.334Z,46.10
2017-08-11T05:11:20.802Z,46.10
2017-08-11T05:13:48.288Z,46.20
2017-08-11T05:16:15.772Z,46.10
2017-08-11T05:18:43.235Z,46.10
2017-08-11T05:21:10.700Z,46.10
2017-08-11T05:23:38.156Z,46.10
2017-08-11T05:26:05.691Z,46.10
2017-08-11T05:28:33.165Z,46.10
2017-08-11T05:31:00.652Z,46.00
2017-08-11T05:33:28.137Z,46.10
2017-08-11T05:35:55.588Z,46.00
2017-08-11T05:38:23.079Z,46.00
2017-08-11T05:40:50.551Z,46.10
2017-08-11T05:43:18.017Z,46.10
2017-08-11T05:45:45.490Z,46.10
2017-08-11T05:48:12.934Z,46.30
2017-08-11T05:50:40.403Z,46.10
2017-08-11T05:53:07.857Z,46.20
2017-08-11T05:55:35.338Z,46.20
2017-08-11T05:58:02.809Z,46.20
2017-08-11T06:00:30.304Z,46.20
2017-08-11T06:02:57.797Z,46.30
2017-08-11T06:05:25.296Z,46.10
2017-08-11T06:07:53.509Z,46.30
2017-08-11T06:10:20.978Z,46.20
2017-08-11T06:12:48.438Z,46.20
2017-08-11T06:15:15.889Z,46.10
2017-08-11T06:17:43.360Z,46.20
2017-08-11T06:20:10.814Z,46.10
2017-08-11T06:22:38.288Z,46.20
2017-08-11T06:25:05.750Z,46.20
2017-08-11T06:27:33.230Z,46.20
2017-08-11T06:30:00.670Z,46.20
2017-08-11T06:32:28.149Z,46.20
2017-08-11T06:34:55.616Z,46.20
2017-08-11T06:37:23.089Z,46.20
2017-08-11T06:39:50.559Z,46.10
2017-08-11T06:42:18.838Z,46.20
2017-08-11T06:44:46.310Z,46.20
2017-08-11T06:47:13.784Z,46.10
2017-08-11T06:49:41.247Z,46.10
2017-08-11T06:52:08.701Z,46.10
2017-08-11T06:54:36.187Z,46.00
2017-08-11T06:57:03.641Z,46.10
2017-08-11T06:59:31.127Z,46.20
2017-08-11T07:01:58.619Z,46.20
2017-08-11T07:04:26.081Z,46.10
2017-08-11T07:06:53.551Z,46.10
2017-08-11T07:09:21.042Z,46.10
2017-08-11T07:11:48.501Z,46.00
2017-08-11T07:14:15.974Z,46.10
2017-08-11T07:16:43.451Z,46.10
2017-08-11T07:19:10.902Z,46.00
2017-08-11T07:21:38.385Z,46.00
2017-08-11T07:24:05.847Z,46.00
2017-08-11T07:26:33.318Z,46.10
2017-08-11T07:29:00.780Z,46.20
2017-08-11T07:31:28.280Z,46.40
2017-08-11T07:33:55.747Z,46.50
2017-08-11T07:36:23.227Z,47.30
2017-08-11T07:38:50.685Z,47.20
2017-08-11T07:41:18.166Z,47.10
2017-08-11T07:43:45.629Z,47.30
2017-08-11T07:46:13.102Z,47.50
2017-08-11T07:48:40.587Z,47.80
2017-08-11T07:51:08.095Z,48.20
2017-08-11T07:53:35.563Z,48.80
2017-08-11T07:56:03.058Z,49.40
2017-08-11T07:58:30.545Z,49.50
2017-08-11T08:00:58.023Z,49.50
2017-08-11T08:03:25.485Z,50.30
2017-08-11T08:05:52.941Z,49.50
2017-08-11T08:08:20.411Z,49.70
2017-08-11T08:10:47.874Z,49.90
2017-08-11T08:13:15.350Z,49.90
2017-08-11T08:15:42.812Z,50.00
2017-08-11T08:18:10.297Z,50.00
2017-08-11T08:20:37.757Z,50.10
2017-08-11T08:23:05.258Z,50.20
2017-08-11T08:25:33.477Z,50.30
2017-08-11T08:28:00.973Z,50.30
2017-08-11T08:30:28.421Z,50.20
2017-08-11T08:32:55.906Z,50.20
2017-08-11T08:35:23.371Z,50.20
2017-08-11T08:37:50.874Z,50.20
2017-08-11T08:40:18.349Z,50.20
2017-08-11T08:42:45.827Z,50.20
2017-08-11T08:45:13.307Z,50.10
2017-08-11T08:47:40.763Z,50.10
2017-08-11T08:50:08.243Z,50.10
2017-08-11T08:52:35.710Z,50.10
2017-08-11T08:55:03.198Z,50.00
2017-08-11T08:57:30.667Z,50.00
2017-08-11T08:59:58.170Z,50.00
2017-08-11T09:02:25.629Z,50.00
2017-08-11T09:04:53.088Z,50.00
2017-08-11T09:07:20.549Z,50.00
2017-08-11T09:09:48.016Z,50.00
2017-08-11T09:12:15.528Z,49.90
2017-08-11T09:14:43.008Z,50.10
2017-08-11T09:17:10.490Z,50.40
2017-08-11T09:19:37.975Z,50.80
2017-08-11T09:22:05.453Z,50.70
2017-08-11T09:24:44.589Z,50.80
2017-08-11T09:27:23.908Z,50.80
2017-08-11T09:30:03.159Z,50.80
2017-08-11T09:32:42.493Z,50.70
2017-08-11T09:35:21.747Z,50.50
2017-08-11T09:37:49.216Z,50.40
2017-08-11T09:40:16.677Z,50.40
2017-08-11T09:42:44.186Z,50.20
2017-08-11T09:45:11.653Z,50.20
2017-08-11T09:47:39.913Z,49.50
2017-08-11T09:50:07.389Z,49.90
2017-08-11T09:52:34.855Z,49.80
2017-08-11T09:55:02.318Z,49.80
2017-08-11T09:57:29.779Z,49.80
2017-08-11T09:59:57.233Z,49.80
2017-08-11T10:02:24.729Z,49.70
2017-08-11T10:04:52.196Z,49.60
2017-08-11T10:07:19.663Z,49.60
2017-08-11T10:09:47.123Z,49.50
2017-08-11T10:12:14.582Z,49.60
2017-08-11T10:14:42.070Z,49.50
2017-08-11T10:17:09.540Z,49.60
2017-08-11T10:19:37.007Z,49.40
2017-08-11T10:22:04.485Z,49.50
2017-08-11T10:24:31.953Z,49.30
2017-08-11T10:26:59.423Z,49.40
2017-08-11T10:29:26.883Z,49.30
2017-08-11T10:31:54.346Z,49.20
2017-08-11T10:34:21.822Z,49.20
2017-08-11T10:36:49.292Z,49.10
2017-08-11T10:39:16.774Z,49.10
2017-08-11T10:41:44.258Z,49.10
2017-08-11T10:44:11.723Z,48.90
2017-08-11T10:46:39.223Z,48.80
2017-08-11T10:49:06.681Z,48.70
2017-08-11T10:51:34.148Z,48.70
2017-08-11T10:54:01.618Z,48.70
2017-08-11T10:56:29.089Z,48.70
2017-08-11T10:58:56.563Z,48.60
2017-08-11T11:01:24.036Z,48.60
2017-08-11T11:03:51.508Z,48.60
2017-08-11T11:06:18.971Z,48.50
2017-08-11T11:08:46.431Z,48.50
2017-08-11T11:11:13.890Z,48.50
2017-08-11T11:13:42.135Z,48.40
2017-08-11T11:16:09.606Z,48.40
2017-08-11T11:18:37.112Z,48.20
2017-08-11T11:21:04.584Z,48.30
2017-08-11T11:23:32.068Z,48.20
2017-08-11T11:25:59.533Z,48.30
2017-08-11T11:28:26.994Z,48.30
2017-08-11T11:30:54.463Z,48.20
2017-08-11T11:33:21.915Z,48.20
2017-08-11T11:35:49.391Z,48.10
2017-08-11T11:38:16.846Z,48.10
2017-08-11T11:40:44.317Z,48.00
2017-08-11T11:43:11.787Z,48.00
2017-08-11T11:45:39.255Z,47.90
2017-08-11T11:48:06.724Z,47.80
2017-08-11T11:50:34.209Z,47.70
2017-08-11T11:53:01.677Z,47.60
2017-08-11T11:55:29.179Z,47.40
2017-08-11T11:57:56.645Z,47.30
2017-08-11T12:00:24.120Z,47.40
2017-08-11T12:02:51.574Z,47.10
2017-08-11T12:05:19.060Z,47.30
2017-08-11T12:07:46.532Z,47.20
2017-08-11T12:10:13.989Z,47.10
2017-08-11T12:12:42.217Z,47.40
2017-08-11T12:15:09.682Z,47.00
2017-08-11T12:17:37.158Z,46.90
2017-08-11T12:20:04.629Z,46.90
2017-08-11T12:22:32.315Z,46.70
2017-08-11T12:24:59.770Z,46.60
2017-08-11T12:27:27.248Z,46.50
2017-08-11T12:29:54.740Z,46.50
2017-08-11T12:32:22.210Z,46.40
2017-08-11T12:34:49.673Z,46.40
2017-08-11T12:37:17.147Z,45.80
2017-08-11T12:39:44.621Z,46.00
2017-08-11T12:42:12.135Z,45.80
2017-08-11T12:44:39.598Z,45.80
2017-08-11T12:47:07.062Z,45.90
2017-08-11T12:49:34.545Z,46.00
2017-08-11T12:52:01.999Z,46.00
2017-08-11T12:54:29.473Z,46.00
2017-08-11T12:56:56.931Z,46.20
2017-08-11T12:59:24.397Z,46.20
2017-08-11T13:01:51.872Z,46.20
2017-08-11T13:04:19.330Z,46.20
2017-08-11T13:06:46.810Z,46.20
2017-08-11T13:09:14.266Z,46.20
2017-08-11T13:11:41.754Z,46.10
2017-08-11T13:14:09.219Z,46.10
2017-08-11T13:16:36.700Z,46.10
2017-08-11T13:19:04.162Z,46.10
2017-08-11T13:21:31.632Z,46.10
2017-08-11T13:23:59.099Z,46.20
2017-08-11T13:26:26.554Z,46.10
2017-08-11T13:28:54.043Z,46.10
2017-08-11T13:31:21.515Z,46.20
2017-08-11T13:33:48.985Z,46.10
2017-08-11T13:36:16.459Z,46.20
2017-08-11T13:38:43.925Z,46.20
2017-08-11T13:41:11.385Z,46.30
2017-08-11T13:43:38.882Z,46.10
2017-08-11T13:46:06.378Z,46.10
2017-08-11T13:48:33.852Z,46.30
2017-08-11T13:51:01.314Z,46.40
2017-08-11T13:53:28.767Z,46.40
2017-08-11T13:55:56.225Z,46.50
2017-08-11T13:58:23.675Z,46.60
2017-08-11T14:00:51.130Z,46.60
2017-08-11T14:03:18.602Z,46.60
2017-08-11T14:05:46.142Z,46.70
2017-08-11T14:08:13.616Z,46.70
2017-08-11T14:10:41.073Z,46.80
2017-08-11T14:13:08.553Z,46.90
2017-08-11T14:15:36.017Z,46.90
2017-08-11T14:18:03.600Z,46.90
2017-08-11T14:20:31.058Z,46.90
2017-08-11T14:22:58.528Z,46.90
2017-08-11T14:25:25.992Z,47.00
2017-08-11T14:27:53.474Z,47.00
2017-08-11T14:30:20.937Z,47.00
2017-08-11T14:32:48.461Z,46.90
2017-08-11T14:35:15.959Z,47.00
2017-08-11T14:37:43.421Z,46.90
2017-08-11T14:40:10.889Z,47.00
2017-08-11T14:42:38.366Z,46.90
2017-08-11T14:45:05.831Z,46.90
2017-08-11T14:47:33.290Z,46.90
2017-08-11T14:50:00.765Z,47.00
2017-08-11T14:52:28.227Z,46.90
2017-08-11T14:54:56.456Z,46.90
2017-08-11T14:57:23.917Z,46.90
2017-08-11T14:59:51.368Z,46.90
2017-08-11T15:02:18.833Z,46.80
2017-08-11T15:04:46.304Z,46.80
2017-08-11T15:07:13.771Z,46.90
2017-08-11T15:09:41.236Z,46.80
2017-08-11T15:12:08.700Z,46.90
2017-08-11T15:14:36.165Z,46.90
2017-08-11T15:17:03.635Z,47.50
2017-08-11T15:19:31.092Z,46.80
2017-08-11T15:21:58.553Z,46.80
2017-08-11T15:24:26.032Z,46.80
2017-08-11T15:26:53.490Z,46.80
2017-08-11T15:29:20.961Z,46.90
2017-08-11T15:31:48.453Z,46.90
2017-08-11T15:34:15.908Z,46.90
2017-08-11T15:36:43.377Z,46.90
2017-08-11T15:39:10.842Z,46.80
2017-08-11T15:41:38.323Z,46.90
2017-08-11T15:44:05.797Z,46.80
2017-08-11T15:46:33.273Z,46.90
2017-08-11T15:49:00.747Z,46.80
2017-08-11T15:51:28.202Z,46.80
2017-08-11T15:53:55.687Z,46.70
2017-08-11T15:56:23.143Z,46.60
2017-08-11T15:58:50.608Z,46.60
2017-08-11T16:01:18.121Z,46.40
2017-08-11T16:03:45.587Z,46.50
2017-08-11T16:06:13.078Z,46.40
2017-08-11T16:08:40.549Z,46.60
2017-08-11T16:11:08.019Z,46.40
2017-08-11T16:13:35.501Z,46.50
2017-08-11T16:16:02.974Z,46.60
2017-08-11T16:18:30.475Z,46.50
2017-08-11T16:20:57.952Z,46.60
2017-08-11T16:23:25.412Z,46.60
2017-08-11T16:25:52.874Z,46.70
2017-08-11T16:28:20.336Z,46.80
2017-08-11T16:30:47.807Z,46.70
2017-08-11T16:33:15.325Z,46.70
2017-08-11T16:35:42.793Z,46.70
2017-08-11T16:38:10.254Z,46.70
2017-08-11T16:40:37.789Z,46.80
2017-08-11T16:43:05.413Z,46.80
2017-08-11T16:45:33.198Z,46.60
2017-08-11T16:48:00.680Z,46.80
2017-08-11T16:50:28.141Z,46.70
2017-08-11T16:52:55.606Z,46.70
2017-08-11T16:55:23.140Z,46.60
2017-08-11T16:57:50.605Z,46.70
2017-08-11T17:00:18.082Z,46.70
2017-08-11T17:02:45.547Z,46.70
2017-08-11T17:05:13.026Z,46.60
2017-08-11T17:07:40.494Z,46.70
2017-08-11T17:10:08.229Z,46.70
2017-08-11T17:12:35.709Z,46.70
2017-08-11T17:15:03.169Z,46.70
2017-08-11T17:17:30.663Z,46.80
2017-08-11T17:19:58.135Z,46.70
2017-08-11T17:22:25.616Z,46.60
2017-08-11T17:24:53.077Z,46.70
2017-08-11T17:27:20.554Z,46.60
2017-08-11T17:29:48.030Z,46.60
2017-08-11T17:32:15.496Z,46.70
2017-08-11T17:34:42.952Z,46.60
2017-08-11T17:37:10.422Z,46.70
2017-08-11T17:39:37.886Z,46.60
2017-08-11T17:42:07.457Z,46.70
2017-08-11T17:44:34.918Z,46.70
2017-08-11T17:47:02.384Z,46.70
2017-08-11T17:49:29.862Z,46.70
2017-08-11T17:51:57.335Z,46.90
2017-08-11T17:54:24.826Z,46.60
2017-08-11T17:56:52.277Z,46.70
2017-08-11T17:59:19.761Z,46.70
2017-08-11T18:01:47.238Z,46.70
2017-08-11T18:04:14.712Z,46.60
2017-08-11T18:06:42.174Z,46.70
2017-08-11T18:09:09.671Z,46.70
2017-08-11T18:11:37.129Z,46.70
2017-08-11T18:14:04.598Z,46.60
2017-08-11T18:16:32.074Z,46.70
2017-08-11T18:18:59.542Z,46.60
2017-08-11T18:21:27.043Z,46.60
2017-08-11T18:23:54.505Z,46.70
2017-08-11T18:26:21.965Z,46.70
2017-08-11T18:28:49.429Z,46.80
2017-08-11T18:31:16.890Z,47.10
2017-08-11T18:33:44.342Z,47.20
2017-08-11T18:36:11.822Z,47.20
2017-08-11T18:38:39.304Z,47.40
2017-08-11T18:41:07.551Z,47.50
2017-08-11T18:43:35.014Z,47.50
2017-08-11T18:46:02.484Z,47.40
2017-08-11T18:48:29.950Z,47.20
2017-08-11T18:50:57.440Z,47.20
2017-08-11T18:53:26.988Z,47.10
2017-08-11T18:55:55.357Z,47.40
2017-08-11T18:58:22.806Z,47.10
2017-08-11T19:00:50.305Z,46.90
2017-08-11T19:03:17.775Z,46.60
2017-08-11T19:05:45.245Z,46.70
2017-08-11T19:08:12.749Z,47.00
2017-08-11T19:10:40.216Z,47.10
2017-08-11T19:13:07.674Z,47.10
2017-08-11T19:15:35.121Z,47.00
2017-08-11T19:18:02.582Z,46.90
2017-08-11T19:20:30.050Z,46.90
2017-08-11T19:22:57.518Z,46.80
2017-08-11T19:25:25.012Z,47.00
2017-08-11T19:27:52.466Z,47.20
2017-08-11T19:30:19.925Z,47.20
2017-08-11T19:32:47.370Z,47.20
2017-08-11T19:35:14.838Z,47.80
2017-08-11T19:37:42.326Z,47.20
2017-08-11T19:40:09.827Z,47.10
2017-08-11T19:42:37.290Z,47.10
2017-08-11T19:45:04.756Z,46.90
2017-08-11T19:47:32.197Z,46.90
2017-08-11T19:49:59.659Z,46.60
2017-08-11T19:52:27.110Z,46.80
2017-08-11T19:54:54.555Z,46.80
2017-08-11T19:57:22.012Z,46.90
2017-08-11T19:59:49.465Z,46.80
2017-08-11T20:02:16.906Z,46.70
2017-08-11T20:04:44.406Z,46.70
2017-08-11T20:07:11.849Z,46.70
2017-08-11T20:09:39.325Z,46.70
2017-08-11T20:12:06.775Z,46.70
2017-08-11T20:14:34.240Z,46.60
2017-08-11T20:17:01.690Z,46.70
2017-08-11T20:19:29.176Z,46.70
2017-08-11T20:21:56.637Z,46.80
2017-08-11T20:24:24.088Z,46.70
2017-08-11T20:26:51.549Z,46.70
2017-08-11T20:29:18.996Z,46.60
2017-08-11T20:31:46.460Z,46.60
2017-08-11T20:34:13.915Z,46.50
2017-08-11T20:36:41.370Z,46.60
2017-08-11T20:39:08.823Z,46.60
2017-08-11T20:41:36.279Z,46.50
2017-08-11T20:44:03.727Z,46.60
2017-08-11T20:46:31.220Z,46.50
2017-08-11T20:48:58.666Z,46.60
2017-08-11T20:51:26.132Z,46.50
2017-08-11T20:53:53.606Z,46.70
2017-08-11T20:56:21.057Z,46.60
2017-08-11T20:58:48.517Z,46.50
2017-08-11T21:01:16.012Z,46.60
2017-08-11T21:03:43.465Z,46.40
2017-08-11T21:06:10.915Z,46.50
2017-08-11T21:08:38.384Z,46.60
2017-08-11T21:11:05.825Z,46.50
2017-08-11T21:13:33.281Z,46.70
2017-08-11T21:16:00.735Z,46.50
2017-08-11T21:18:28.191Z,46.60
2017-08-11T21:20:55.641Z,46.70
2017-08-11T21:23:23.119Z,46.50
2017-08-11T21:25:50.601Z,46.50
2017-08-11T21:28:18.088Z,46.70
2017-08-11T21:30:45.549Z,46.60
2017-08-11T21:33:13.020Z,46.50
2017-08-11T21:35:40.476Z,46.60
2017-08-11T21:38:07.930Z,46.70
2017-08-11T21:40:35.386Z,46.60
2017-08-11T21:43:02.851Z,46.60
2017-08-11T21:45:30.323Z,46.60
2017-08-11T21:47:57.779Z,46.60
2017-08-11T21:50:25.242Z,46.70
2017-08-11T21:52:52.703Z,46.60
2017-08-11T21:55:21.046Z,46.70
2017-08-11T21:57:48.779Z,46.80
2017-08-11T22:00:16.482Z,46.80
2017-08-11T22:02:44.474Z,46.70
2017-08-11T22:05:11.991Z,47.60
2017-08-11T22:07:39.456Z,46.80
2017-08-11T22:10:06.918Z,46.40
2017-08-11T22:12:34.386Z,46.30
2017-08-11T22:15:01.842Z,46.30
2017-08-11T22:17:29.306Z,46.30
2017-08-11T22:19:56.770Z,46.10
2017-08-11T22:22:24.571Z,46.10
2017-08-11T22:24:52.078Z,46.20
2017-08-11T22:27:19.541Z,46.20
2017-08-11T22:29:46.982Z,46.20
2017-08-11T22:32:14.467Z,46.20
2017-08-11T22:34:41.930Z,46.30
2017-08-11T22:37:09.399Z,46.20
2017-08-11T22:39:36.864Z,46.20
2017-08-11T22:42:04.323Z,46.20
2017-08-11T22:44:31.793Z,46.10
2017-08-11T22:46:59.292Z,46.10
2017-08-11T22:49:26.756Z,46.10
2017-08-11T22:51:54.210Z,46.10
2017-08-11T22:54:21.667Z,46.20
2017-08-11T22:56:49.126Z,46.00
2017-08-11T22:59:16.584Z,46.10
2017-08-11T23:01:44.039Z,46.00
2017-08-11T23:04:11.498Z,45.80
2017-08-11T23:06:38.949Z,45.90
2017-08-11T23:09:06.414Z,45.90
2017-08-11T23:11:33.880Z,45.80
2017-08-11T23:14:01.345Z,45.80
2017-08-11T23:16:28.799Z,45.80
2017-08-11T23:18:56.262Z,45.80
2017-08-11T23:21:23.744Z,45.60
2017-08-11T23:23:51.212Z,45.80
2017-08-11T23:26:18.670Z,46.00
2017-08-11T23:28:46.143Z,46.30
2017-08-11T23:31:13.594Z,46.40
2017-08-11T23:33:41.071Z,46.80
2017-08-11T23:36:08.539Z,47.10
2017-08-11T23:38:35.997Z,47.40
2017-08-11T23:41:03.463Z,47.40
2017-08-11T23:43:30.960Z,47.70
2017-08-11T23:45:58.422Z,47.90
2017-08-11T23:48:26.772Z,48.00
2017-08-11T23:50:54.239Z,48.10
2017-08-11T23:53:21.700Z,48.20
2017-08-11T23:55:49.174Z,48.30
2017-08-11T23:58:16.691Z,48.40
